Hawaii METAR Reports

 

PHOG - Kahului, Hawaii, USA
Distance from station: WNW 8mi, 13km
Updated: Fri, 24-May-2019 4:54pm HST
Partly Cloudy
Partly Cloudy
 Wind from E
Wind: E 20 mph , 31 km/h, Gust: 33 mph , 54 km/h
Temperature: 88°F , 31°C
Heat Index: 90°F , 32°C
Dew Point: 64°F , 18°C
Humidity: 46%
Barometer: 29.99 inHg , 1015.6 hPa
Clouds: Partly Cloudy
Visibility: 10 miles , 16 km
Cloud details: Partly Cloudy 4000 ft
2019/05/25 02:54 PHOG 250254Z 08017G29KT 10SM SCT040 31/18 A2999 RMK AO2 PK WND 08032/0216 SLP160 T03110183 56007
PHJH - Lahaina/West Mau, Hawaii, USA
Distance from station: WNW 24mi, 39km
Updated: Fri, 24-May-2019 4:50pm HST
Few Clouds
Few Clouds
 Wind from ENE
Wind: ENE 17 mph , 28 km/h, Gust: 25 mph , 41 km/h
Temperature: 82°F , 28°C
Heat Index: 84°F , 29°C
Dew Point: 66°F , 19°C
Humidity: 58%
Barometer: 30.02 inHg , 1016.6 hPa
Clouds: Few Clouds
Visibility: 15 miles , 24 km
Cloud details: Few Clouds 3000 ft
2019/05/25 02:50 PHJH 250250Z 06015G22KT 15SM FEW030 28/19 A3002
 
PHNY - Lanai City Airpo, Hawaii, USA
Distance from station: W 40mi, 65km
Updated: Fri, 24-May-2019 4:56pm HST
Few Clouds
Few Clouds
 Wind from NNE
Wind: NNE 15 mph , 24 km/h
Temperature: 79°F , 26°C
Dew Point: 72°F , 22°C
Humidity: 79%
Barometer: 30.09 inHg , 1019 hPa
Clouds: Few Clouds
Visibility: 10 miles , 16 km
Cloud details: Few Clouds 3000 ft
2019/05/25 02:56 PHNY 250256Z AUTO 02013KT 10SM FEW030 26/22 A3009 RMK AO2 SLP166 6//// T02560217 56005
PHMK - Molokai, Hawaii, USA
Distance from station: WNW 55mi, 88km
Updated: Fri, 24-May-2019 4:54pm HST
Clear
Clear
 Wind from NE
Wind: NE 13 mph , 20 km/h, Gust: 21 mph , 33 km/h
Temperature: 82°F , 28°C
Heat Index: 85°F , 29°C
Dew Point: 68°F , 20°C
Humidity: 62%
Barometer: 30.04 inHg , 1017.3 hPa
Clouds: Clear
Visibility: 10 miles , 16 km
2019/05/25 02:54 PHMK 250254Z 04011G18KT 10SM CLR 28/20 A3004 RMK AO2 SLP173 T02830200 56005
 
PHKO - Kailua/Kona, Hawaii, USA
Distance from station: SSE 79mi, 128km
Updated: Fri, 24-May-2019 4:53pm HST
Mostly Cloudy
Mostly Cloudy
 Wind from S
Wind: S 17 mph , 28 km/h
Temperature: 84°F , 29°C
Heat Index: 88°F , 31°C
Dew Point: 70°F , 21°C
Humidity: 62%
Barometer: 29.98 inHg , 1015.2 hPa
Clouds: Mostly Cloudy
Visibility: 10 miles , 16 km
Cloud details: Mostly Cloudy 8000 ft
2019/05/25 02:53 PHKO 250253Z 18015KT 10SM BKN080 29/21 A2998 RMK AO2 SLP152 T02890211 56009
PHSF - Bradshaw Aaf/Haw, Hawaii, USA
Distance from station: SE 90mi, 145km
Updated: Fri, 24-May-2019 1:55pm HST
NOT Current
Partly Cloudy
Partly Cloudy
 Wind from SW
Wind: SW 8 mph , 13 km/h
Temperature: 68°F , 20°C
Dew Point: 55°F , 13°C
Humidity: 64%
Barometer: 30.37 inHg , 1028.4 hPa
Clouds: Partly Cloudy
Visibility: 10 miles , 16 km
Cloud details: Few Clouds 2000 ft
Partly Cloudy 3000 ft
2019/05/24 23:55 PHSF 242355Z 23007KT 10SM FEW020 SCT030 20/13 A3037 RMK SLPNO
 
PHNG - Kaneohe Mcas, Hawaii, USA
Distance from station: WNW 102mi, 164km
Updated: Fri, 24-May-2019 4:54pm HST
Partly Cloudy
Partly Cloudy
 Wind from ENE
Wind: ENE 13 mph , 20 km/h
Temperature: 82°F , 28°C
Heat Index: 86°F , 30°C
Dew Point: 70°F , 21°C
Humidity: 66%
Barometer: 30.02 inHg , 1016.6 hPa
Clouds: Partly Cloudy
Visibility: 10 miles , 16 km
Cloud details: Partly Cloudy 2200 ft
2019/05/25 02:54 PHNG 250254Z AUTO 07011KT 10SM SCT022 28/21 A3002 RMK AO2 $
PHNL - Honolulu, Hawaii, USA
Distance from station: WNW 108mi, 174km
Updated: Fri, 24-May-2019 4:53pm HST
Few Clouds
Few Clouds
 Wind from NE
Wind: NE 14 mph , 22 km/h
Temperature: 88°F , 31°C
Heat Index: 91°F , 33°C
Dew Point: 66°F , 19°C
Humidity: 49%
Barometer: 30.03 inHg , 1016.9 hPa
Clouds: Few Clouds
Visibility: 10 miles , 16 km
Cloud details: Few Clouds 2400 ft
Few Clouds 3800 ft
2019/05/25 02:53 PHNL 250253Z 05012KT 10SM FEW024 FEW038 31/19 A3003 RMK AO2 SLP169 T03060189 56005 $
 
PHTO - Hilo, Hawaii, USA
Distance from station: SE 114mi, 183km
Updated: Fri, 24-May-2019 5:14pm HST
Partly Cloudy
Partly Cloudy
 Wind from ESE
Wind: ESE 7 mph , 11 km/h
Temperature: 81°F , 27°C
Heat Index: 83°F , 28°C
Dew Point: 66°F , 19°C
Humidity: 62%
Barometer: 30.06 inHg , 1017.9 hPa
Clouds: Partly Cloudy
Visibility: 10 miles , 16 km
Cloud details: Partly Cloudy 2900 ft
Partly Cloudy 3600 ft
2019/05/25 03:14 PHTO 250314Z 11006KT 10SM SCT029 SCT036 27/19 A3006 RMK AO2 T02670194
PHJR - Kalaeloa, Hawaii, USA
Distance from station: WNW 117mi, 189km
Updated: Fri, 24-May-2019 4:53pm HST
Clear
Clear
 Wind from SE
Wind: SE 9 mph , 15 km/h
Temperature: 84°F , 29°C
Heat Index: 89°F , 32°C
Dew Point: 72°F , 22°C
Humidity: 66%
Barometer: 30.04 inHg , 1017.3 hPa
Clouds: Clear
Visibility: 10 miles , 16 km
2019/05/25 02:53 PHJR 250253Z 13008KT 100V170 10SM CLR 29/22 A3004 RMK AO2 SLP178 T02940217 57008
 
PHHI - Wheeler Afb/Oahu, Hawaii, USA
Distance from station: WNW 120mi, 193km
Updated: Fri, 24-May-2019 4:56pm HST
Clear
Clear
 Wind from E
Wind: E 13 mph , 20 km/h
Temperature: 82°F , 28°C
Heat Index: 84°F , 29°C
Dew Point: 66°F , 19°C
Humidity: 58%
Barometer: 30.04 inHg , 1017.3 hPa
Clouds: Clear
Visibility: 10 miles , 16 km
2019/05/25 02:56 PHHI 250256Z AUTO 08011KT 10SM CLR 28/19 A3004 RMK AO2 SLP163 T02770192 56008 $
PHLI - Lihue/Kauai Is, Hawaii, USA
Distance from station: WNW 209mi, 336km
Updated: Fri, 24-May-2019 4:53pm HST
Partly Cloudy
Partly Cloudy
 Wind from ENE
Wind: ENE 13 mph , 20 km/h
Temperature: 81°F , 27°C
Heat Index: 86°F , 30°C
Dew Point: 73°F , 23°C
Humidity: 79%
Barometer: 30.06 inHg , 1017.9 hPa
Clouds: Partly Cloudy
Visibility: 10 miles , 16 km
Cloud details: Partly Cloudy 1800 ft
2019/05/25 02:53 PHLI 250253Z 06011KT 10SM SCT018 27/23 A3006 RMK AO2 SLP176 T02720228 56010
 
PHBK - Barking Sands/Ka, Hawaii, USA
Distance from station: WNW 237mi, 382km
Updated: Fri, 24-May-2019 4:56pm HST
Partly Cloudy
Partly Cloudy
 Wind from SSW
Wind: SSW 13 mph , 20 km/h
Temperature: 82°F , 28°C
Heat Index: 91°F , 33°C
Dew Point: 79°F , 26°C
Humidity: 89%
Barometer: 30.03 inHg , 1016.9 hPa
Clouds: Partly Cloudy
Visibility: 10 miles , 16 km
Cloud details: Partly Cloudy 6500 ft
2019/05/25 02:56 PHBK 250256Z AUTO 20011KT 10SM SCT065 28/26 A3003 RMK AO2 SLP171 T02780256 56010